Time,TemperatureF,DewpointF,PressureIn,WindDirection,WindDirectionDegrees,WindSpeedMPH,WindSpeedGustMPH,Humidity,HourlyPrecipIn,Conditions,Clouds,dailyrainin,SoftwareType,DateUTC
2013-04-17 00:13:00,75.1,72.0,30.12,ENE,60,8.0,10.0,89,0.00,,,0.00,weatherlink.com 1.10,2013-04-17 04:13:00,
2013-04-17 00:28:00,74.9,72.0,30.12,ENE,58,8.0,10.0,89,0.00,,,0.00,weatherlink.com 1.10,2013-04-17 04:28:00,
2013-04-17 00:43:00,74.6,71.0,30.12,ENE,60,9.0,12.0,89,0.00,,,0.00,weatherlink.com 1.10,2013-04-17 04:43:00,
2013-04-17 00:58:00,74.4,71.0,30.11,ENE,71,9.0,11.0,89,0.00,,,0.00,weatherlink.com 1.10,2013-04-17 04:58:00,
2013-04-17 01:13:00,74.3,71.0,30.11,ENE,58,9.0,11.0,89,0.00,,,0.00,weatherlink.com 1.10,2013-04-17 05:13:00,
2013-04-17 01:28:00,74.2,71.0,30.10,NE,56,8.0,9.0,89,0.00,,,0.00,weatherlink.com 1.10,2013-04-17 05:28:00,
2013-04-17 01:43:00,74.0,71.0,30.11,NE,52,7.0,9.0,89,0.00,,,0.00,weatherlink.com 1.10,2013-04-17 05:43:00,
2013-04-17 01:58:00,73.8,71.0,30.10,NE,54,7.0,11.0,90,0.00,,,0.00,weatherlink.com 1.10,2013-04-17 05:58:00,
2013-04-17 02:13:00,73.6,71.0,30.09,NE,54,7.0,8.0,90,0.00,,,0.00,weatherlink.com 1.10,2013-04-17 06:13:00,
2013-04-17 02:28:00,73.4,70.0,30.09,NE,50,5.0,10.0,90,0.00,,,0.00,weatherlink.com 1.10,2013-04-17 06:28:00,
2013-04-17 02:43:00,73.2,70.0,30.08,NE,49,3.0,7.0,90,0.00,,,0.00,weatherlink.com 1.10,2013-04-17 06:43:00,
2013-04-17 02:58:00,73.1,70.0,30.08,NE,47,5.0,10.0,90,0.00,,,0.00,weatherlink.com 1.10,2013-04-17 06:58:00,
2013-04-17 03:13:00,73.0,70.0,30.08,NE,46,2.0,8.0,90,0.00,,,0.00,weatherlink.com 1.10,2013-04-17 07:13:00,
2013-04-17 03:28:00,72.9,70.0,30.08,NE,43,4.0,7.0,91,0.00,,,0.00,weatherlink.com 1.10,2013-04-17 07:28:00,
2013-04-17 03:43:00,72.8,70.0,30.08,NE,39,4.0,8.0,91,0.00,,,0.00,weatherlink.com 1.10,2013-04-17 07:43:00,
2013-04-17 03:58:00,72.6,70.0,30.08,NE,39,5.0,8.0,91,0.00,,,0.00,weatherlink.com 1.10,2013-04-17 07:58:00,
2013-04-17 04:13:00,72.6,70.0,30.08,NE,42,8.0,9.0,91,0.00,,,0.00,weatherlink.com 1.10,2013-04-17 08:13:00,
2013-04-17 04:28:00,72.4,70.0,30.07,NE,47,6.0,10.0,91,0.00,,,0.00,weatherlink.com 1.10,2013-04-17 08:28:00,
2013-04-17 04:43:00,72.3,70.0,30.07,NE,44,8.0,10.0,91,0.00,,,0.00,weatherlink.com 1.10,2013-04-17 08:43:00,
2013-04-17 04:58:00,72.1,69.0,30.07,NE,42,3.0,9.0,91,0.00,,,0.00,weatherlink.com 1.10,2013-04-17 08:58:00,
2013-04-17 05:13:00,72.0,69.0,30.07,NE,44,7.0,8.0,91,0.00,,,0.00,weatherlink.com 1.10,2013-04-17 09:13:00,
2013-04-17 05:28:00,71.9,69.0,30.07,NE,47,4.0,9.0,91,0.00,,,0.00,weatherlink.com 1.10,2013-04-17 09:28:00,
2013-04-17 05:43:00,71.7,69.0,30.07,NE,45,6.0,9.0,91,0.00,,,0.00,weatherlink.com 1.10,2013-04-17 09:43:00,
2013-04-17 05:58:00,71.6,69.0,30.07,NE,45,6.0,9.0,92,0.00,,,0.00,weatherlink.com 1.10,2013-04-17 09:58:00,
2013-04-17 06:13:00,71.5,69.0,30.08,NE,42,3.0,10.0,92,0.00,,,0.00,weatherlink.com 1.10,2013-04-17 10:13:00,
2013-04-17 06:28:00,71.4,69.0,30.08,NE,51,6.0,10.0,92,0.00,,,0.00,weatherlink.com 1.10,2013-04-17 10:28:00,
2013-04-17 06:43:00,71.3,69.0,30.08,NE,54,6.0,9.0,92,0.00,,,0.00,weatherlink.com 1.10,2013-04-17 10:43:00,
2013-04-17 06:58:00,71.3,69.0,30.09,NE,49,5.0,9.0,92,0.00,,,0.00,weatherlink.com 1.10,2013-04-17 10:58:00,
2013-04-17 07:13:00,71.2,69.0,30.09,NE,46,7.0,8.0,92,0.00,,,0.00,weatherlink.com 1.10,2013-04-17 11:13:00,
2013-04-17 07:28:00,71.3,69.0,30.09,NE,49,7.0,10.0,92,0.00,,,0.00,weatherlink.com 1.10,2013-04-17 11:28:00,
2013-04-17 07:43:00,71.5,69.0,30.10,NE,49,8.0,10.0,92,0.00,,,0.00,weatherlink.com 1.10,2013-04-17 11:43:00,
2013-04-17 07:58:00,71.7,69.0,30.10,NE,39,8.0,13.0,92,0.00,,,0.00,weatherlink.com 1.10,2013-04-17 11:58:00,
2013-04-17 08:13:00,72.2,70.0,30.11,NE,50,6.0,11.0,92,0.00,,,0.00,weatherlink.com 1.10,2013-04-17 12:13:00,
2013-04-17 08:28:00,72.7,70.0,30.11,NE,53,10.0,14.0,92,0.00,,,0.00,weatherlink.com 1.10,2013-04-17 12:28:00,
2013-04-17 08:43:00,73.3,71.0,30.11,NE,55,8.0,16.0,91,0.00,,,0.00,weatherlink.com 1.10,2013-04-17 12:43:00,
2013-04-17 08:58:00,74.1,71.0,30.11,NE,43,9.0,15.0,90,0.00,,,0.00,weatherlink.com 1.10,2013-04-17 12:58:00,
2013-04-17 09:13:00,75.0,72.0,30.11,ENE,62,16.0,18.0,89,0.00,,,0.00,weatherlink.com 1.10,2013-04-17 13:13:00,
2013-04-17 09:28:00,75.7,72.0,30.11,ENE,66,13.0,16.0,87,0.00,,,0.00,weatherlink.com 1.10,2013-04-17 13:28:00,
2013-04-17 09:44:00,76.7,72.0,30.11,ENE,62,9.0,18.0,86,0.00,,,0.00,weatherlink.com 1.10,2013-04-17 13:44:00,
2013-04-17 10:00:00,77.9,73.0,30.11,NE,38,8.0,17.0,84,0.00,,,0.00,weatherlink.com 1.10,2013-04-17 14:00:00,
2013-04-17 10:14:00,78.7,73.0,30.11,ENE,64,9.0,17.0,83,0.00,,,0.00,weatherlink.com 1.10,2013-04-17 14:14:00,
2013-04-17 10:29:00,79.7,73.0,30.10,NE,52,10.0,15.0,81,0.00,,,0.00,weatherlink.com 1.10,2013-04-17 14:29:00,
2013-04-17 10:44:00,80.6,74.0,30.10,NE,55,11.0,16.0,80,0.00,,,0.00,weatherlink.com 1.10,2013-04-17 14:44:00,
2013-04-17 10:59:00,81.4,74.0,30.10,ENE,72,10.0,14.0,79,0.00,,,0.00,weatherlink.com 1.10,2013-04-17 14:59:00,
2013-04-17 11:14:00,82.3,74.0,30.10,ENE,77,8.0,16.0,77,0.00,,,0.00,weatherlink.com 1.10,2013-04-17 15:14:00,
2013-04-17 11:29:00,83.1,75.0,30.09,NE,54,14.0,15.0,76,0.00,,,0.00,weatherlink.com 1.10,2013-04-17 15:29:00,
2013-04-17 11:44:00,83.9,75.0,30.09,ENE,57,8.0,15.0,75,0.00,,,0.00,weatherlink.com 1.10,2013-04-17 15:44:00,
2013-04-17 11:59:00,85.0,75.0,30.08,ENE,59,12.0,14.0,73,0.00,,,0.00,weatherlink.com 1.10,2013-04-17 15:59:00,
2013-04-17 12:14:00,85.7,75.0,30.08,NE,53,9.0,16.0,70,0.00,,,0.00,weatherlink.com 1.10,2013-04-17 16:14:00,
2013-04-17 12:29:00,86.3,75.0,30.07,NE,48,7.0,13.0,68,0.00,,,0.00,weatherlink.com 1.10,2013-04-17 16:29:00,
2013-04-17 12:44:00,86.7,76.0,30.07,ENE,58,7.0,14.0,70,0.00,,,0.00,weatherlink.com 1.10,2013-04-17 16:44:00,
2013-04-17 12:59:00,87.5,75.0,30.07,NE,41,6.0,14.0,67,0.00,,,0.00,weatherlink.com 1.10,2013-04-17 16:59:00,
2013-04-17 13:14:00,87.9,76.0,30.06,NE,46,5.0,14.0,67,0.00,,,0.00,weatherlink.com 1.10,2013-04-17 17:14:00,
2013-04-17 13:29:00,88.6,74.0,30.05,NE,38,7.0,12.0,63,0.00,,,0.00,weatherlink.com 1.10,2013-04-17 17:29:00,
2013-04-17 13:44:00,89.6,75.0,30.05,NE,34,10.0,14.0,62,0.00,,,0.00,weatherlink.com 1.10,2013-04-17 17:44:00,
2013-04-17 13:59:00,91.0,75.0,30.04,ENE,57,6.0,15.0,59,0.00,,,0.00,weatherlink.com 1.10,2013-04-17 17:59:00,
2013-04-17 14:14:00,90.1,73.0,30.04,NE,56,6.0,13.0,57,0.00,,,0.00,weatherlink.com 1.10,2013-04-17 18:14:00,
2013-04-17 14:29:00,88.8,73.0,30.04,NE,51,9.0,14.0,60,0.00,,,0.00,weatherlink.com 1.10,2013-04-17 18:29:00,
2013-04-17 14:44:00,88.7,74.0,30.03,NE,43,10.0,14.0,61,0.00,,,0.00,weatherlink.com 1.10,2013-04-17 18:44:00,
2013-04-17 14:59:00,88.7,74.0,30.03,NE,39,7.0,13.0,63,0.00,,,0.00,weatherlink.com 1.10,2013-04-17 18:59:00,
2013-04-17 15:15:00,88.4,73.0,30.02,NE,50,7.0,12.0,61,0.00,,,0.00,weatherlink.com 1.10,2013-04-17 19:15:00,
2013-04-17 15:30:00,88.8,73.0,30.02,NE,37,10.0,13.0,60,0.00,,,0.00,weatherlink.com 1.10,2013-04-17 19:30:00,
2013-04-17 15:45:00,90.3,74.0,30.02,NNE,20,4.0,14.0,58,0.00,,,0.00,weatherlink.com 1.10,2013-04-17 19:45:00,
2013-04-17 16:00:00,90.2,72.0,30.01,NE,51,10.0,11.0,56,0.00,,,0.00,weatherlink.com 1.10,2013-04-17 20:00:00,
2013-04-17 16:15:00,89.3,73.0,30.01,North,9,8.0,12.0,58,0.00,,,0.00,weatherlink.com 1.10,2013-04-17 20:15:00,
2013-04-17 16:30:00,88.5,73.0,30.01,NNE,24,7.0,13.0,60,0.00,,,0.00,weatherlink.com 1.10,2013-04-17 20:30:00,
2013-04-17 16:45:00,91.1,74.0,30.00,ENE,71,6.0,11.0,58,0.00,,,0.00,weatherlink.com 1.10,2013-04-17 20:45:00,
2013-04-17 17:00:00,92.2,73.0,30.00,NE,55,9.0,14.0,53,0.00,,,0.00,weatherlink.com 1.10,2013-04-17 21:00:00,
2013-04-17 17:15:00,92.3,73.0,30.00,NNE,21,7.0,10.0,54,0.00,,,0.00,weatherlink.com 1.10,2013-04-17 21:15:00,
2013-04-17 17:30:00,91.7,72.0,30.00,NE,49,7.0,11.0,53,0.00,,,0.00,weatherlink.com 1.10,2013-04-17 21:30:00,
2013-04-17 17:45:00,90.3,71.0,30.00,NE,54,5.0,8.0,54,0.00,,,0.00,weatherlink.com 1.10,2013-04-17 21:45:00,
2013-04-17 18:00:00,89.1,71.0,30.00,NE,47,0.0,7.0,56,0.00,,,0.00,weatherlink.com 1.10,2013-04-17 22:00:00,
2013-04-17 18:15:00,85.2,75.0,30.00,South,180,10.0,15.0,71,0.00,,,0.00,weatherlink.com 1.10,2013-04-17 22:15:00,
2013-04-17 18:30:00,83.0,75.0,30.01,SSW,208,8.0,16.0,77,0.00,,,0.00,weatherlink.com 1.10,2013-04-17 22:30:00,
2013-04-17 18:45:00,82.4,75.0,30.01,SSW,197,12.0,12.0,78,0.00,,,0.00,weatherlink.com 1.10,2013-04-17 22:45:00,
2013-04-17 19:00:00,81.8,76.0,30.02,SSW,212,6.0,10.0,81,0.04,,,0.04,weatherlink.com 1.10,2013-04-17 23:00:00,
2013-04-17 19:15:00,80.1,75.0,30.02,SSE,161,11.0,14.0,84,0.12,,,0.12,weatherlink.com 1.10,2013-04-17 23:15:00,
2013-04-17 19:30:00,77.4,72.0,30.03,NNE,16,0.0,9.0,84,0.63,,,0.63,weatherlink.com 1.10,2013-04-17 23:30:00,
2013-04-17 19:45:00,76.3,72.0,30.03,SSW,199,1.0,5.0,87,0.77,,,0.77,weatherlink.com 1.10,2013-04-17 23:45:00,
2013-04-17 20:00:00,75.8,72.0,30.03,SSW,204,3.0,7.0,88,0.75,,,0.79,weatherlink.com 1.10,2013-04-18 00:00:00,
2013-04-17 20:15:00,75.8,72.0,30.03,SSW,195,0.0,4.0,89,0.65,,,0.79,weatherlink.com 1.10,2013-04-18 00:15:00,
2013-04-17 20:30:00,76.2,73.0,30.04,South,185,4.0,8.0,90,0.15,,,0.80,weatherlink.com 1.10,2013-04-18 00:30:00,
2013-04-17 20:45:00,75.7,72.0,30.04,South,185,0.0,0.0,89,0.04,,,0.81,weatherlink.com 1.10,2013-04-18 00:45:00,
2013-04-17 21:00:00,75.4,72.0,30.05,ESE,108,0.0,5.0,89,0.03,,,0.82,weatherlink.com 1.10,2013-04-18 01:00:00,
2013-04-17 21:15:00,75.1,72.0,30.04,ESE,108,0.0,1.0,90,0.03,,,0.82,weatherlink.com 1.10,2013-04-18 01:15:00,
2013-04-17 21:45:00,75.5,73.0,30.05,ESE,108,0.0,3.0,91,0.01,,,0.82,weatherlink.com 1.10,2013-04-18 01:45:00,
2013-04-17 22:00:00,75.6,73.0,30.05,East,90,10.0,10.0,90,0.00,,,0.82,weatherlink.com 1.10,2013-04-18 02:00:00,
2013-04-17 22:15:00,75.1,71.0,30.05,ESE,110,4.0,9.0,87,0.00,,,0.82,weatherlink.com 1.10,2013-04-18 02:15:00,
2013-04-17 22:30:00,75.1,70.0,30.06,East,89,4.0,13.0,85,0.00,,,0.82,weatherlink.com 1.10,2013-04-18 02:30:00,
2013-04-17 22:45:00,75.3,70.0,30.06,East,79,7.0,13.0,83,0.00,,,0.82,weatherlink.com 1.10,2013-04-18 02:45:00,
2013-04-17 23:00:00,75.8,70.0,30.05,ENE,57,5.0,9.0,82,0.00,,,0.82,weatherlink.com 1.10,2013-04-18 03:00:00,
2013-04-17 23:15:00,76.1,70.0,30.05,ENE,62,6.0,11.0,80,0.00,,,0.82,weatherlink.com 1.10,2013-04-18 03:15:00,
2013-04-17 23:30:00,76.2,70.0,30.06,ENE,58,7.0,11.0,80,0.00,,,0.82,weatherlink.com 1.10,2013-04-18 03:30:00,
2013-04-17 23:45:00,76.1,70.0,30.06,ENE,62,8.0,10.0,80,0.00,,,0.82,weatherlink.com 1.10,2013-04-18 03:45:00,